createdAt,value
2023-02-22T00:00:51.313Z,1.11
2023-02-22T00:01:51.731Z,1.11
2023-02-22T00:02:51.384Z,1.11
2023-02-22T00:03:51.275Z,1.10
2023-02-22T00:04:51.275Z,1.09
2023-02-22T00:54:52.737Z,0.50
2023-02-22T00:55:54.497Z,0.50
2023-02-22T00:56:53.750Z,0.50
2023-02-22T00:59:53.729Z,0.50
2023-02-22T01:00:53.743Z,0.47
2023-02-22T01:01:53.835Z,0.50
2023-02-22T01:02:54.474Z,0.50
2023-02-22T01:03:53.700Z,0.50
2023-02-22T01:04:53.685Z,0.50
2023-02-22T01:05:53.665Z,0.50
2023-02-22T01:06:53.657Z,0.50
2023-02-22T01:07:53.654Z,0.50
2023-02-22T01:08:53.645Z,0.50
2023-02-22T01:09:53.663Z,0.50
2023-02-22T01:10:53.652Z,0.50
2023-02-22T01:14:53.585Z,0.50
2023-02-22T01:15:53.581Z,0.51
2023-02-22T01:16:53.682Z,0.51
2023-02-22T01:17:53.714Z,0.51
2023-02-22T01:18:53.551Z,0.50
2023-02-22T01:19:54.057Z,0.51
2023-02-22T01:20:53.526Z,0.52
2023-02-22T01:21:53.516Z,0.51
2023-02-22T01:23:53.501Z,0.51
2023-02-22T01:25:53.480Z,0.51
2023-02-22T01:26:53.497Z,0.52
2023-02-22T01:27:53.474Z,0.51
2023-02-22T01:28:53.457Z,0.51
2023-02-22T01:29:53.443Z,0.50
2023-02-22T01:30:53.523Z,0.51
2023-02-22T01:31:53.447Z,0.51
2023-02-22T01:32:53.484Z,0.50
2023-02-22T01:33:53.407Z,0.51
2023-02-22T01:35:53.390Z,0.51
2023-02-22T01:36:53.395Z,0.51
2023-02-22T01:37:53.367Z,0.52
2023-02-22T01:38:53.361Z,0.52
2023-02-22T01:39:53.347Z,0.52
2023-02-22T01:40:53.339Z,0.52
2023-02-22T01:41:53.342Z,0.51
2023-02-22T01:42:53.350Z,0.51
2023-02-22T01:46:53.288Z,0.52
2023-02-22T01:58:53.216Z,0.52
2023-02-22T05:03:51.491Z,0.57
2023-02-22T05:04:51.557Z,0.56
2023-02-22T05:05:51.463Z,0.56
2023-02-22T05:06:53.427Z,0.57
2023-02-22T05:07:51.445Z,0.57
2023-02-22T05:08:51.441Z,0.56
2023-02-22T05:09:51.432Z,0.56
2023-02-22T05:10:51.438Z,0.56
2023-02-22T05:11:51.415Z,0.57
2023-02-22T05:12:51.427Z,0.57
2023-02-22T05:13:51.409Z,0.56
2023-02-22T05:14:51.379Z,0.56
2023-02-22T05:15:51.401Z,0.57
2023-02-22T05:16:51.357Z,0.57
2023-02-22T05:17:51.405Z,0.56
2023-02-22T05:20:51.337Z,0.58
2023-02-22T05:21:51.322Z,0.56
2023-02-22T05:22:51.308Z,0.57
2023-02-22T05:23:51.298Z,0.56
2023-02-22T05:24:51.285Z,0.56
2023-02-22T05:25:52.069Z,0.57
2023-02-22T05:26:51.415Z,0.56
2023-02-22T05:27:51.270Z,0.56
2023-02-22T05:28:51.289Z,0.57
2023-02-22T05:29:51.267Z,0.55
2023-02-22T05:30:51.254Z,0.56
2023-02-22T05:31:51.406Z,0.56
2023-02-22T05:32:51.276Z,0.57
2023-02-22T05:33:51.208Z,0.57
2023-02-22T05:34:51.198Z,0.57
2023-02-22T05:35:51.188Z,0.56
2023-02-22T05:36:51.179Z,0.56
2023-02-22T05:37:51.169Z,0.57
2023-02-22T05:38:51.171Z,0.57
2023-02-22T05:39:51.147Z,0.57
2023-02-22T05:40:51.144Z,0.57
2023-02-22T05:41:51.141Z,0.57
2023-02-22T05:42:51.170Z,0.57
2023-02-22T05:43:51.121Z,0.57
2023-02-22T05:44:51.102Z,0.57
2023-02-22T05:45:51.097Z,0.57
2023-02-22T05:46:51.208Z,0.56
2023-02-22T05:47:51.092Z,0.57
2023-02-22T05:48:51.070Z,0.57
2023-02-22T05:49:51.061Z,0.57
2023-02-22T05:50:51.057Z,0.57
2023-02-22T05:51:51.044Z,0.57
2023-02-22T05:52:51.089Z,0.57
2023-02-22T05:53:51.024Z,0.58
2023-02-22T05:55:51.004Z,0.57
2023-02-22T05:56:50.990Z,0.57
2023-02-22T05:57:50.986Z,0.56
2023-02-22T05:58:51.006Z,0.56
2023-02-22T05:59:50.966Z,0.57
2023-02-22T06:00:50.952Z,0.57
2023-02-22T06:01:50.967Z,0.57
2023-02-22T06:02:50.937Z,0.56
2023-02-22T06:03:50.931Z,0.57
2023-02-22T06:04:50.919Z,0.56
2023-02-22T06:05:50.972Z,0.57
2023-02-22T06:06:51.594Z,0.57
2023-02-22T06:07:50.901Z,0.57
2023-02-22T06:08:50.885Z,0.57
2023-02-22T06:09:50.871Z,0.57
2023-02-22T06:10:50.879Z,0.56
2023-02-22T06:11:51.211Z,0.57
2023-02-22T06:12:50.843Z,0.57
2023-02-22T06:13:53.628Z,0.57
2023-02-22T06:14:50.822Z,0.57
2023-02-22T06:15:50.812Z,0.57
2023-02-22T06:16:50.802Z,0.57
2023-02-22T06:17:51.086Z,0.57
2023-02-22T06:18:51.230Z,0.57
2023-02-22T06:19:50.777Z,0.57
2023-02-22T06:20:50.784Z,0.56
2023-02-22T06:21:50.759Z,0.59
2023-02-22T06:22:51.348Z,0.60
2023-02-22T06:24:50.730Z,0.59
2023-02-22T06:26:50.750Z,0.61
2023-02-22T06:27:51.087Z,0.62
2023-02-22T06:28:50.696Z,0.61
2023-02-22T06:29:50.711Z,0.62
2023-02-22T06:30:50.705Z,0.62
2023-02-22T06:31:50.811Z,0.64
2023-02-22T06:32:50.672Z,0.66
2023-02-22T06:33:51.104Z,0.65
2023-02-22T06:34:51.589Z,0.66
2023-02-22T06:35:50.630Z,0.65
2023-02-22T06:36:50.639Z,0.67
2023-02-22T06:37:50.615Z,0.67
2023-02-22T06:38:51.094Z,0.67
2023-02-22T06:39:50.598Z,0.66
2023-02-22T06:40:50.626Z,0.68
2023-02-22T06:41:50.628Z,0.67
2023-02-22T06:42:53.096Z,0.69
2023-02-22T06:43:50.636Z,0.69
2023-02-22T06:44:51.781Z,0.69
2023-02-22T06:45:50.602Z,0.68
2023-02-22T06:46:50.602Z,0.67
2023-02-22T06:47:50.687Z,0.64
2023-02-22T06:48:50.590Z,0.63
2023-02-22T06:49:50.505Z,0.64
2023-02-22T06:50:50.498Z,0.63
2023-02-22T06:51:50.486Z,0.64
2023-02-22T06:52:50.477Z,0.66
2023-02-22T06:53:50.612Z,0.66
2023-02-22T06:54:50.469Z,0.69
2023-02-22T06:55:50.450Z,0.70
2023-02-22T06:56:50.459Z,0.65
2023-02-22T06:57:51.103Z,0.66
2023-02-22T06:58:50.607Z,0.67
2023-02-22T06:59:50.436Z,0.68
2023-02-22T07:00:50.470Z,0.69
2023-02-22T07:02:50.436Z,0.69
2023-02-22T07:05:50.393Z,0.69
2023-02-22T07:06:50.358Z,0.69
2023-02-22T07:07:50.351Z,0.69
2023-02-22T07:08:50.609Z,0.68
2023-02-22T07:09:50.342Z,0.69
2023-02-22T07:10:50.332Z,0.68
2023-02-22T07:11:50.608Z,0.69
2023-02-22T07:12:50.299Z,0.69
2023-02-22T07:13:50.628Z,0.68
2023-02-22T07:14:50.292Z,0.68
2023-02-22T07:15:50.284Z,0.68
2023-02-22T07:16:50.266Z,0.69
2023-02-22T07:17:50.272Z,0.69
2023-02-22T07:18:50.271Z,0.68
2023-02-22T07:19:50.619Z,0.68
2023-02-22T07:20:51.142Z,0.68
2023-02-22T07:21:50.232Z,0.68
2023-02-22T07:22:50.209Z,0.69
2023-02-22T07:23:50.610Z,0.68
2023-02-22T07:24:50.188Z,0.67
2023-02-22T07:25:50.176Z,0.69
2023-02-22T07:26:50.165Z,0.68
2023-02-22T07:27:50.165Z,0.67
2023-02-22T07:28:50.624Z,0.68
2023-02-22T07:29:50.161Z,0.68
2023-02-22T07:30:50.613Z,0.67
2023-02-22T07:31:50.211Z,0.68
2023-02-22T07:32:51.146Z,0.68
2023-02-22T07:33:50.117Z,0.67
2023-02-22T07:34:50.636Z,0.67
2023-02-22T07:35:50.087Z,0.67
2023-02-22T07:36:50.081Z,0.68
2023-02-22T07:37:50.206Z,0.67
2023-02-22T07:38:50.059Z,0.68
2023-02-22T07:39:50.618Z,0.67
2023-02-22T07:40:50.069Z,0.68
2023-02-22T07:41:50.049Z,0.67
2023-02-22T07:42:50.023Z,0.68
2023-02-22T07:43:52.615Z,0.68
2023-02-22T07:44:50.118Z,0.68
2023-02-22T07:45:51.112Z,0.67
2023-02-22T07:46:50.021Z,0.68
2023-02-22T07:47:50.012Z,0.69
2023-02-22T07:48:50.973Z,0.68
2023-02-22T07:49:50.120Z,0.72
2023-02-22T07:50:50.653Z,0.67
2023-02-22T07:51:49.982Z,0.68
2023-02-22T07:53:21.738Z,0.69
2023-02-22T07:53:52.631Z,0.69
2023-02-22T07:54:50.130Z,0.69
2023-02-22T07:55:49.928Z,0.69
2023-02-22T07:56:52.619Z,0.70
2023-02-22T07:57:50.160Z,0.69
2023-02-22T07:58:52.617Z,0.69
2023-02-22T07:59:49.895Z,0.69
2023-02-22T08:00:49.867Z,0.69
2023-02-22T08:02:49.862Z,0.69
2023-02-22T08:03:49.890Z,0.69
2023-02-22T08:04:50.129Z,0.69
2023-02-22T08:05:49.818Z,0.69
2023-02-22T08:06:49.846Z,0.72
2023-02-22T08:07:49.798Z,0.72
2023-02-22T08:08:50.635Z,0.72
2023-02-22T08:09:52.628Z,0.73
2023-02-22T08:10:50.637Z,0.70
2023-02-22T08:11:49.771Z,0.73
2023-02-22T08:12:50.129Z,0.71
2023-02-22T08:13:49.750Z,0.74
2023-02-22T08:14:49.738Z,0.75
2023-02-22T08:16:49.778Z,0.72
2023-02-22T08:17:50.366Z,0.73
2023-02-22T08:18:49.702Z,0.74
2023-02-22T08:19:49.688Z,0.76
2023-02-22T08:20:50.634Z,0.80
2023-02-22T08:21:49.684Z,0.81
2023-02-22T08:22:49.701Z,0.82
2023-02-22T08:23:52.629Z,0.84
2023-02-22T08:24:52.627Z,0.84
2023-02-22T08:25:50.137Z,0.84
2023-02-22T08:26:50.038Z,0.84
2023-02-22T08:27:49.629Z,0.85
2023-02-22T08:28:49.605Z,0.88
2023-02-22T08:29:49.604Z,0.89
2023-02-22T08:30:49.815Z,0.92
2023-02-22T08:32:49.831Z,0.92
2023-02-22T08:35:49.898Z,0.95
2023-02-22T08:37:04.197Z,0.91
2023-02-22T08:37:49.644Z,0.91
2023-02-22T08:40:49.670Z,0.92
2023-02-22T08:45:49.689Z,1.12
2023-02-22T08:46:50.135Z,1.07
2023-02-22T08:49:49.656Z,1.13
2023-02-22T08:50:49.673Z,1.15
2023-02-22T08:52:50.391Z,1.13
2023-02-22T08:54:50.391Z,0.64
2023-02-22T08:56:49.645Z,0.54
2023-02-22T08:58:50.001Z,0.50
2023-02-22T09:00:50.392Z,0.50
2023-02-22T09:05:49.708Z,0.50
2023-02-22T09:15:49.658Z,0.52
2023-02-22T09:21:49.644Z,0.56
2023-02-22T09:23:49.641Z,0.51
2023-02-22T09:26:49.671Z,0.57
2023-02-22T09:28:49.680Z,0.55
2023-02-22T09:38:51.648Z,0.50
2023-02-22T09:50:49.655Z,1.13
2023-02-22T10:03:51.718Z,1.36
2023-02-22T10:04:49.657Z,1.36
2023-02-22T10:06:49.664Z,1.39
2023-02-22T10:10:49.663Z,1.48
2023-02-22T10:11:49.682Z,1.47
2023-02-22T10:54:44.839Z,0.50
2023-02-22T10:55:45.962Z,0.50
2023-02-22T10:56:45.897Z,0.50
2023-02-22T10:57:45.960Z,0.50
2023-02-22T10:58:45.867Z,0.50
2023-02-22T10:59:45.858Z,0.50
2023-02-22T11:00:46.739Z,0.54
2023-02-22T11:02:45.853Z,0.56
2023-02-22T11:03:45.829Z,0.62
2023-02-22T11:04:45.861Z,0.65
2023-02-22T11:05:45.797Z,0.76
2023-02-22T11:06:45.795Z,0.68
2023-02-22T11:07:45.800Z,0.76
2023-02-22T11:08:45.762Z,0.76
2023-02-22T11:09:45.758Z,0.78
2023-02-22T11:11:46.038Z,0.69
2023-02-22T11:12:45.733Z,0.67
2023-02-22T11:13:45.716Z,0.62
2023-02-22T11:14:45.973Z,0.63
2023-02-22T11:15:45.699Z,0.66
2023-02-22T11:16:45.736Z,0.68
2023-02-22T11:17:45.675Z,0.67
2023-02-22T11:18:45.704Z,0.56
2023-02-22T11:19:46.029Z,0.56
2023-02-22T11:20:45.650Z,0.62
2023-02-22T11:21:45.647Z,0.59
2023-02-22T11:23:45.963Z,0.59
2023-02-22T11:24:49.328Z,0.58
2023-02-22T11:25:45.608Z,0.60
2023-02-22T11:26:45.615Z,0.58
2023-02-22T11:27:45.589Z,0.55
2023-02-22T11:28:45.969Z,0.55
2023-02-22T11:29:45.567Z,0.56
2023-02-22T11:30:46.407Z,0.56
2023-02-22T11:31:45.692Z,0.51
2023-02-22T11:32:45.535Z,0.54
2023-02-22T11:33:45.968Z,0.57
2023-02-22T11:34:45.576Z,0.52
2023-02-22T11:35:45.532Z,0.51
2023-02-22T11:37:45.516Z,0.59
2023-02-22T11:38:45.498Z,0.57
2023-02-22T11:39:45.524Z,0.52
2023-02-22T11:40:45.495Z,0.58
2023-02-22T11:41:45.462Z,0.54
2023-02-22T11:42:45.461Z,0.59
2023-02-22T11:43:45.453Z,0.89
2023-02-22T11:44:45.432Z,0.66
2023-02-22T11:45:57.777Z,0.65
2023-02-22T11:46:46.107Z,0.66
2023-02-22T11:47:45.427Z,0.66
2023-02-22T11:48:45.391Z,0.66
2023-02-22T11:49:45.371Z,0.66
2023-02-22T11:50:45.389Z,0.69
2023-02-22T11:51:45.389Z,0.67
2023-02-22T11:52:45.375Z,0.64
2023-02-22T11:53:45.354Z,0.61
2023-02-22T11:54:45.327Z,0.64
2023-02-22T11:55:45.470Z,0.73
2023-02-22T11:56:45.352Z,0.66
2023-02-22T11:57:45.297Z,0.61
2023-02-22T11:58:45.284Z,0.59
2023-02-22T11:59:45.291Z,0.88
2023-02-22T12:00:45.271Z,0.58
2023-02-22T12:01:45.254Z,0.56
2023-02-22T12:02:56.365Z,0.45
2023-02-22T12:03:45.354Z,0.45
2023-02-22T12:04:45.345Z,0.44
2023-02-22T12:05:45.225Z,0.40
2023-02-22T12:06:45.229Z,0.37
2023-02-22T12:07:45.200Z,0.35
2023-02-22T12:08:45.510Z,0.35
2023-02-22T12:09:45.177Z,0.41
2023-02-22T12:10:45.173Z,0.50
2023-02-22T12:12:45.477Z,0.53
2023-02-22T12:13:45.147Z,0.56
2023-02-22T12:14:45.502Z,0.49
2023-02-22T12:15:45.158Z,0.48
2023-02-22T12:16:45.110Z,0.52
2023-02-22T12:17:54.296Z,0.53
2023-02-22T12:18:45.096Z,0.53
2023-02-22T12:19:45.088Z,0.54
2023-02-22T12:20:45.076Z,0.49
2023-02-22T12:21:45.072Z,0.45
2023-02-22T12:22:45.081Z,0.45
2023-02-22T12:23:45.107Z,0.51
2023-02-22T12:24:45.038Z,0.53
2023-02-22T12:25:45.089Z,0.50
2023-02-22T12:26:45.018Z,0.56
2023-02-22T12:27:45.013Z,0.59
2023-02-22T12:28:45.041Z,0.58
2023-02-22T12:29:44.999Z,0.50
2023-02-22T12:30:45.105Z,0.58
2023-02-22T12:31:45.154Z,0.56
2023-02-22T12:32:44.978Z,0.55
2023-02-22T12:33:45.035Z,0.61
2023-02-22T12:34:45.016Z,0.66
2023-02-22T12:35:44.938Z,0.66
2023-02-22T12:36:44.929Z,0.71
2023-02-22T12:37:45.494Z,0.73
2023-02-22T12:38:45.016Z,0.71
2023-02-22T12:39:53.101Z,0.73
2023-02-22T12:40:44.900Z,0.73
2023-02-22T12:41:44.902Z,0.74
2023-02-22T12:42:44.879Z,0.78
2023-02-22T12:43:45.013Z,0.83
2023-02-22T12:44:44.858Z,0.85
2023-02-22T12:45:44.857Z,0.92
2023-02-22T12:46:44.882Z,0.98
2023-02-22T12:47:44.836Z,0.95
2023-02-22T12:48:44.830Z,0.98
2023-02-22T12:49:44.821Z,0.92
2023-02-22T12:50:44.797Z,0.91
2023-02-22T12:51:44.801Z,0.99
2023-02-22T12:52:44.787Z,0.93
2023-02-22T12:53:44.773Z,0.85
2023-02-22T12:54:44.794Z,0.88
2023-02-22T12:55:44.752Z,0.89
2023-02-22T12:56:44.755Z,0.94
2023-02-22T12:58:44.728Z,0.90
2023-02-22T12:59:44.720Z,0.87
2023-02-22T13:00:45.018Z,0.84
2023-02-22T13:01:44.747Z,0.81
2023-02-22T13:02:44.688Z,0.82
2023-02-22T13:03:44.685Z,0.81
2023-02-22T13:04:45.015Z,0.81
2023-02-22T13:05:44.665Z,0.90
2023-02-22T13:07:44.642Z,0.82
2023-02-22T13:08:44.642Z,0.69
2023-02-22T13:09:44.661Z,0.75
2023-02-22T13:10:44.764Z,0.98
2023-02-22T13:11:44.605Z,1.27
2023-02-22T13:12:44.600Z,2.04
2023-02-22T13:13:44.599Z,3.37
2023-02-22T13:14:44.577Z,4.16
2023-02-22T13:15:44.599Z,3.33
2023-02-22T13:16:44.567Z,4.32
2023-02-22T13:17:44.544Z,5.14
2023-02-22T13:18:44.546Z,7.19
2023-02-22T13:19:59.507Z,7.32
2023-02-22T13:20:59.537Z,7.38
2023-02-22T13:21:44.511Z,7.40
2023-02-22T13:22:44.497Z,7.66
2023-02-22T13:23:44.529Z,8.40
2023-02-22T13:24:45.003Z,8.58
2023-02-22T13:25:44.468Z,9.73
2023-02-22T13:26:44.488Z,10.90
2023-02-22T13:27:44.457Z,10.79
2023-02-22T13:28:44.442Z,10.51
2023-02-22T13:29:44.429Z,8.84
2023-02-22T13:30:44.481Z,7.84
2023-02-22T13:31:44.431Z,7.63
2023-02-22T13:32:44.408Z,7.38
2023-02-22T13:33:44.394Z,7.79
2023-02-22T13:34:44.387Z,7.74
2023-02-22T13:35:44.384Z,8.56
2023-02-22T13:36:44.368Z,8.59
2023-02-22T13:37:44.350Z,8.77
2023-02-22T13:38:44.347Z,8.87
2023-02-22T13:39:44.336Z,8.95
2023-02-22T13:40:44.327Z,8.86
2023-02-22T13:41:44.317Z,9.06
2023-02-22T13:42:44.333Z,8.99
2023-02-22T13:43:44.307Z,8.94
2023-02-22T13:44:44.287Z,9.05
2023-02-22T13:45:43.295Z,9.16
2023-02-22T13:46:44.352Z,8.97
2023-02-22T13:47:44.258Z,9.08
2023-02-22T13:48:44.250Z,8.87
2023-02-22T13:49:44.242Z,9.01
2023-02-22T13:50:44.229Z,9.28
2023-02-22T13:51:44.224Z,8.88
2023-02-22T13:52:44.203Z,8.91
2023-02-22T13:53:44.523Z,8.90
2023-02-22T13:54:44.190Z,8.90
2023-02-22T13:55:44.192Z,9.16
2023-02-22T13:56:44.171Z,8.82
2023-02-22T13:57:44.164Z,9.06
2023-02-22T13:58:44.186Z,8.74
2023-02-22T13:59:44.143Z,8.85
2023-02-22T14:01:44.190Z,8.76
2023-02-22T14:03:44.104Z,8.78
2023-02-22T14:04:59.050Z,8.76
2023-02-22T14:05:44.176Z,8.80
2023-02-22T14:06:44.073Z,8.83
2023-02-22T14:07:44.064Z,8.81
2023-02-22T14:08:44.065Z,8.86
2023-02-22T14:09:44.050Z,8.88
2023-02-22T14:10:44.520Z,8.87
2023-02-22T14:11:44.030Z,8.66
2023-02-22T14:12:44.019Z,8.68
2023-02-22T14:13:44.013Z,8.54
2023-02-22T14:14:44.029Z,8.47
2023-02-22T14:15:44.074Z,8.58
2023-02-22T14:16:43.981Z,8.40
2023-02-22T14:17:43.975Z,8.44
2023-02-22T14:18:43.963Z,8.31
2023-02-22T14:19:44.138Z,8.27
2023-02-22T14:20:43.951Z,8.47
2023-02-22T14:21:44.045Z,8.22
2023-02-22T14:22:46.243Z,8.19
2023-02-22T14:23:43.920Z,8.20
2023-02-22T14:24:43.907Z,8.21
2023-02-22T14:25:43.901Z,8.24
2023-02-22T14:26:44.182Z,8.29
2023-02-22T14:27:43.880Z,8.33
2023-02-22T14:28:43.871Z,8.11
2023-02-22T14:29:43.855Z,8.26
2023-02-22T14:32:44.735Z,8.21
2023-02-22T14:33:44.289Z,7.97
2023-02-22T14:34:43.811Z,8.05
2023-02-22T14:35:49.880Z,7.93
2023-02-22T14:36:43.797Z,7.95
2023-02-22T14:37:43.785Z,7.97
2023-02-22T14:38:43.775Z,7.98
2023-02-22T14:40:43.755Z,7.95
2023-02-22T14:41:43.749Z,8.04
2023-02-22T14:42:43.878Z,7.87
2023-02-22T14:43:44.033Z,8.07
2023-02-22T14:44:43.746Z,7.74
2023-02-22T14:45:43.773Z,7.90
2023-02-22T14:46:44.564Z,7.79
2023-02-22T14:47:43.909Z,7.87
2023-02-22T14:48:43.675Z,7.74
2023-02-22T14:49:43.696Z,7.94
2023-02-22T14:50:43.658Z,7.75
2023-02-22T14:51:44.033Z,7.65
2023-02-22T14:52:43.639Z,7.63
2023-02-22T14:53:43.656Z,7.59
2023-02-22T14:54:43.615Z,7.50
2023-02-22T14:55:43.729Z,7.57
2023-02-22T14:56:43.596Z,7.61
2023-02-22T14:57:43.591Z,7.50
2023-02-22T14:58:43.582Z,7.56
2023-02-22T14:59:43.581Z,7.42
2023-02-22T15:00:43.564Z,7.55
2023-02-22T15:01:53.195Z,7.35
2023-02-22T15:02:43.615Z,7.37
2023-02-22T15:03:45.466Z,7.40
2023-02-22T15:04:43.551Z,7.37
2023-02-22T15:05:43.521Z,7.37
2023-02-22T15:06:43.502Z,7.44
2023-02-22T15:07:43.499Z,7.42
2023-02-22T15:08:43.486Z,7.53
2023-02-22T15:09:44.038Z,7.57
2023-02-22T15:10:43.503Z,7.55
2023-02-22T15:11:43.489Z,7.49
2023-02-22T15:12:43.450Z,7.24
2023-02-22T15:13:43.447Z,7.36
2023-02-22T15:14:43.433Z,7.31
2023-02-22T15:15:43.429Z,7.49
2023-02-22T15:16:43.415Z,7.26
2023-02-22T15:17:43.402Z,7.38
2023-02-22T15:18:43.450Z,7.22
2023-02-22T15:19:43.384Z,7.26
2023-02-22T15:20:43.382Z,7.21
2023-02-22T15:21:43.544Z,7.13
2023-02-22T15:22:43.365Z,7.11
2023-02-22T15:23:43.366Z,7.21
2023-02-22T15:24:43.341Z,7.00
2023-02-22T15:27:00.135Z,7.06
2023-02-22T15:27:43.308Z,7.08
2023-02-22T15:29:43.289Z,7.11
2023-02-22T15:30:43.340Z,7.11
2023-02-22T15:31:45.722Z,7.27
2023-02-22T15:33:01.233Z,7.07
2023-02-22T15:33:43.255Z,7.08
2023-02-22T15:34:43.288Z,7.14
2023-02-22T15:35:43.254Z,7.18
2023-02-22T15:36:43.554Z,7.28
2023-02-22T15:37:43.216Z,7.23
2023-02-22T15:38:43.553Z,7.32
2023-02-22T15:39:43.208Z,7.36
2023-02-22T15:40:43.461Z,7.09
2023-02-22T15:41:43.901Z,7.20
2023-02-22T15:42:43.170Z,7.22
2023-02-22T15:43:43.159Z,7.30
2023-02-22T15:44:43.156Z,6.99
2023-02-22T15:45:43.552Z,7.12
2023-02-22T15:46:43.132Z,6.95
2023-02-22T15:47:43.121Z,6.99
2023-02-22T15:49:43.104Z,7.06
2023-02-22T15:50:43.122Z,7.04
2023-02-22T15:51:43.088Z,7.01
2023-02-22T15:52:43.079Z,6.94
2023-02-22T15:53:43.066Z,6.96
2023-02-22T15:54:43.062Z,7.02
2023-02-22T15:55:43.062Z,6.85
2023-02-22T15:56:43.560Z,6.96
2023-02-22T15:57:43.032Z,6.86
2023-02-22T15:58:43.023Z,6.90
2023-02-22T15:59:43.014Z,6.89
2023-02-22T16:00:43.569Z,7.01
2023-02-22T16:01:43.206Z,6.83
2023-02-22T16:03:42.974Z,6.74
2023-02-22T16:04:51.282Z,6.64
2023-02-22T16:05:42.952Z,6.66
2023-02-22T16:06:42.971Z,6.68
2023-02-22T16:07:42.931Z,6.73
2023-02-22T16:08:54.421Z,6.67
2023-02-22T16:09:42.923Z,6.66
2023-02-22T16:10:42.913Z,6.69
2023-02-22T16:11:42.899Z,6.69
2023-02-22T16:12:42.950Z,6.69
2023-02-22T16:13:43.073Z,6.67
2023-02-22T16:14:42.958Z,6.63
2023-02-22T16:15:42.865Z,6.65
2023-02-22T16:16:42.911Z,6.58
2023-02-22T16:17:52.625Z,6.65
2023-02-22T16:18:42.839Z,6.66
2023-02-22T16:19:42.960Z,6.65
2023-02-22T16:20:43.074Z,6.53
2023-02-22T16:21:42.804Z,6.60
2023-02-22T16:22:42.900Z,6.64
2023-02-22T16:23:42.783Z,6.46
2023-02-22T16:24:43.082Z,6.50
2023-02-22T16:25:42.768Z,6.34
2023-02-22T16:26:42.757Z,6.39
2023-02-22T16:27:42.741Z,6.32
2023-02-22T16:28:42.733Z,6.38
2023-02-22T16:29:42.735Z,6.44
2023-02-22T16:30:43.682Z,6.50
2023-02-22T16:31:42.844Z,6.35
2023-02-22T16:32:42.858Z,6.51
2023-02-22T16:33:44.469Z,6.57
2023-02-22T16:34:42.704Z,6.58
2023-02-22T16:35:42.668Z,6.58
2023-02-22T16:36:42.659Z,6.40
2023-02-22T16:37:42.645Z,6.51
2023-02-22T16:38:42.678Z,6.36
2023-02-22T16:39:42.629Z,6.48
2023-02-22T16:40:42.626Z,6.38
2023-02-22T16:41:42.608Z,6.19
2023-02-22T16:42:42.600Z,6.34
2023-02-22T16:43:42.644Z,6.20
2023-02-22T16:44:43.076Z,6.28
2023-02-22T16:45:42.762Z,6.30
2023-02-22T16:46:42.558Z,6.35
2023-02-22T16:47:42.553Z,6.18
2023-02-22T16:48:42.542Z,6.16
2023-02-22T16:49:42.533Z,6.38
2023-02-22T16:50:43.087Z,6.31
2023-02-22T16:51:43.076Z,6.21
2023-02-22T16:52:42.507Z,6.23
2023-02-22T16:53:42.502Z,6.12
2023-02-22T16:54:42.612Z,6.17
2023-02-22T16:55:42.497Z,6.09
2023-02-22T16:56:42.466Z,6.04
2023-02-22T16:57:42.523Z,6.08
2023-02-22T16:58:42.449Z,6.16
2023-02-22T16:59:42.437Z,6.09
2023-02-22T17:00:42.430Z,6.18
2023-02-22T17:01:45.206Z,6.10
2023-02-22T17:02:42.408Z,6.11
2023-02-22T17:03:42.405Z,6.11
2023-02-22T17:04:42.389Z,6.11
2023-02-22T17:05:43.133Z,6.16
2023-02-22T17:06:42.380Z,6.12
2023-02-22T17:07:42.379Z,6.02
2023-02-22T17:08:42.350Z,6.03
2023-02-22T17:09:42.355Z,5.99
2023-02-22T17:10:42.363Z,6.03
2023-02-22T17:11:42.322Z,6.05
2023-02-22T17:12:42.318Z,6.06
2023-02-22T17:13:42.308Z,6.08
2023-02-22T17:14:42.303Z,6.04
2023-02-22T17:15:42.318Z,6.09
2023-02-22T17:16:42.279Z,6.02
2023-02-22T17:17:42.267Z,6.01
2023-02-22T17:18:42.258Z,5.92
2023-02-22T17:19:42.258Z,6.01
2023-02-22T17:20:42.234Z,5.89
2023-02-22T17:21:42.237Z,6.09
2023-02-22T17:22:43.092Z,6.02
2023-02-22T17:23:42.218Z,5.93
2023-02-22T17:24:42.209Z,6.03
2023-02-22T17:25:42.195Z,6.02
2023-02-22T17:26:42.382Z,5.92
2023-02-22T17:27:42.173Z,5.92
2023-02-22T17:28:42.168Z,5.89
2023-02-22T17:29:42.199Z,5.87
2023-02-22T17:30:42.247Z,5.91
2023-02-22T17:31:42.134Z,5.85
2023-02-22T17:32:42.128Z,5.86
2023-02-22T17:33:42.612Z,5.93
2023-02-22T17:34:42.593Z,5.83
2023-02-22T17:35:42.144Z,5.95
2023-02-22T17:36:42.596Z,6.00
2023-02-22T17:37:42.086Z,5.85
2023-02-22T17:38:42.311Z,5.97
2023-02-22T17:39:42.057Z,5.83
2023-02-22T17:40:42.120Z,5.77
2023-02-22T17:41:42.047Z,5.97
2023-02-22T17:42:42.196Z,5.91
2023-02-22T17:43:42.102Z,5.81
2023-02-22T17:44:42.019Z,5.83
2023-02-22T17:45:42.014Z,5.79
2023-02-22T17:46:42.069Z,5.89
2023-02-22T17:47:41.986Z,5.80
2023-02-22T17:48:41.981Z,5.92
2023-02-22T17:49:41.971Z,5.82
2023-02-22T17:50:41.962Z,5.94
2023-02-22T17:51:41.948Z,5.84
2023-02-22T17:52:41.947Z,5.94
2023-02-22T17:53:41.932Z,5.79
2023-02-22T17:54:41.932Z,5.85
2023-02-22T17:55:41.915Z,5.86
2023-02-22T17:56:41.981Z,5.83
2023-02-22T17:57:41.894Z,5.70
2023-02-22T17:58:42.008Z,5.66
2023-02-22T17:59:41.879Z,5.76
2023-02-22T18:00:41.864Z,5.88
2023-02-22T18:01:41.889Z,5.67
2023-02-22T18:02:41.937Z,5.80
2023-02-22T18:03:41.832Z,5.69
2023-02-22T18:04:41.830Z,5.83
2023-02-22T18:05:41.816Z,5.73
2023-02-22T18:06:41.810Z,5.72
2023-02-22T18:07:41.799Z,5.58
2023-02-22T18:08:41.793Z,5.70
2023-02-22T18:09:41.854Z,5.62
2023-02-22T18:10:41.764Z,5.68
2023-02-22T18:11:41.756Z,5.81
2023-02-22T18:12:41.751Z,5.67
2023-02-22T18:13:41.741Z,5.52
2023-02-22T18:14:41.754Z,5.55
2023-02-22T18:15:41.744Z,5.57
2023-02-22T18:16:41.711Z,5.59
2023-02-22T18:17:41.703Z,5.48
2023-02-22T18:18:41.690Z,5.57
2023-02-22T18:19:41.683Z,5.50
2023-02-22T18:21:41.671Z,5.57
2023-02-22T18:22:41.656Z,5.55
2023-02-22T18:23:41.642Z,5.48
2023-02-22T18:24:41.639Z,5.60
2023-02-22T18:25:41.669Z,5.62
2023-02-22T18:26:41.686Z,5.40
2023-02-22T18:27:41.606Z,5.46
2023-02-22T18:28:41.598Z,5.49
2023-02-22T18:29:41.587Z,5.41
2023-02-22T18:30:41.666Z,5.37
2023-02-22T18:31:41.635Z,5.36
2023-02-22T18:32:41.562Z,5.36
2023-02-22T18:34:41.540Z,5.44
2023-02-22T18:35:41.529Z,5.30
2023-02-22T18:36:41.540Z,5.26
2023-02-22T18:37:41.509Z,5.36
2023-02-22T18:38:41.499Z,5.37
2023-02-22T18:39:41.492Z,5.32
2023-02-22T18:40:41.485Z,5.31
2023-02-22T18:41:41.481Z,5.42
2023-02-22T18:42:41.465Z,5.37
2023-02-22T18:43:41.458Z,5.30
2023-02-22T18:44:41.446Z,5.29
2023-02-22T18:45:41.439Z,5.25
2023-02-22T18:46:41.508Z,5.29
2023-02-22T18:47:41.436Z,5.28
2023-02-22T18:48:41.408Z,5.25
2023-02-22T18:49:41.402Z,5.22
2023-02-22T18:50:41.386Z,5.17
2023-02-22T18:51:41.380Z,5.09
2023-02-22T18:52:41.371Z,5.19
2023-02-22T18:53:41.366Z,5.12
2023-02-22T18:54:41.362Z,5.06
2023-02-22T18:55:41.344Z,5.12
2023-02-22T18:56:41.331Z,5.04
2023-02-22T18:57:41.323Z,5.03
2023-02-22T18:58:41.315Z,5.03
2023-02-22T18:59:41.313Z,5.04
2023-02-22T19:00:41.294Z,5.10
2023-02-22T19:01:41.344Z,5.08
2023-02-22T19:02:41.385Z,5.00
2023-02-22T19:03:41.275Z,5.10
2023-02-22T19:04:41.628Z,4.99
2023-02-22T19:05:41.250Z,4.96
2023-02-22T19:06:41.245Z,4.98
2023-02-22T19:07:41.234Z,4.96
2023-02-22T19:08:41.228Z,5.02
2023-02-22T19:09:41.212Z,4.90
2023-02-22T19:11:41.646Z,4.99
2023-02-22T19:12:41.195Z,4.90
2023-02-22T19:13:41.181Z,4.99
2023-02-22T19:14:41.175Z,4.92
2023-02-22T19:15:41.721Z,4.85
2023-02-22T19:16:41.157Z,4.90
2023-02-22T19:17:42.741Z,4.89
2023-02-22T19:18:41.411Z,4.89
2023-02-22T19:19:41.360Z,4.89
2023-02-22T19:21:40.346Z,4.82
2023-02-22T19:22:41.338Z,4.81
2023-02-22T19:23:56.133Z,4.85
2023-02-22T19:24:41.311Z,4.88
2023-02-22T19:25:41.312Z,4.87
2023-02-22T19:26:41.295Z,4.89
2023-02-22T19:27:41.287Z,4.88
2023-02-22T19:28:41.276Z,4.78
2023-02-22T19:29:41.267Z,4.75
2023-02-22T19:30:41.335Z,4.78
2023-02-22T19:31:42.027Z,4.77
2023-02-22T19:32:41.267Z,4.78
2023-02-22T19:33:41.225Z,4.73
2023-02-22T19:34:41.260Z,4.73
2023-02-22T19:35:41.210Z,4.75
2023-02-22T19:36:41.200Z,4.64
2023-02-22T19:37:41.190Z,4.71
2023-02-22T19:38:41.181Z,4.74
2023-02-22T19:39:41.182Z,4.58
2023-02-22T19:40:41.165Z,4.53
2023-02-22T19:41:41.151Z,4.60
2023-02-22T19:42:41.139Z,4.58
2023-02-22T19:43:41.136Z,4.63
2023-02-22T19:44:41.121Z,4.62
2023-02-22T19:45:41.175Z,4.56
2023-02-22T19:46:41.122Z,4.63
2023-02-22T19:47:41.102Z,4.52
2023-02-22T19:48:41.098Z,4.44
2023-02-22T19:49:41.095Z,4.51
2023-02-22T19:50:41.207Z,4.42
2023-02-22T19:51:41.054Z,4.50
2023-02-22T19:52:41.051Z,4.50
2023-02-22T19:53:41.041Z,4.37
2023-02-22T19:54:41.033Z,4.34
2023-02-22T19:55:41.027Z,4.41
2023-02-22T19:56:41.643Z,4.36
2023-02-22T19:57:41.003Z,4.37
2023-02-22T19:59:40.979Z,4.30
2023-02-22T20:00:40.984Z,4.25